createdAt,value
2019-06-07T00:00:51.888Z,99852.00
2019-06-07T00:03:29.861Z,99855.00
2019-06-07T00:05:59.023Z,99834.00
2019-06-07T00:08:33.506Z,99828.00
2019-06-07T00:11:07.760Z,99827.00
2019-06-07T00:13:40.793Z,99827.00
2019-06-07T00:16:14.951Z,99837.00
2019-06-07T00:18:48.358Z,99828.00
2019-06-07T00:22:12.354Z,99830.00
2019-06-07T00:23:58.382Z,99826.00
2019-06-07T00:26:31.305Z,99830.00
2019-06-07T00:29:04.464Z,99846.00
2019-06-07T00:31:37.483Z,99836.00
2019-06-07T00:34:11.852Z,99842.00
2019-06-07T00:36:44.841Z,99852.00
2019-06-07T00:39:20.292Z,99842.00
2019-06-07T00:41:52.003Z,99822.00
2019-06-07T00:44:27.405Z,99796.00
2019-06-07T00:46:59.346Z,99799.00
2019-06-07T00:49:40.938Z,99803.00
2019-06-07T00:52:07.340Z,99804.00
2019-06-07T00:54:40.360Z,99835.00
2019-06-07T00:57:16.650Z,99829.00
2019-06-07T00:59:47.836Z,99834.00
2019-06-07T01:02:24.870Z,99818.00
2019-06-07T01:04:55.378Z,99826.00
2019-06-07T01:07:28.368Z,99820.00
2019-06-07T01:10:01.450Z,99823.00
2019-06-07T01:12:34.844Z,99835.00
2019-06-07T01:15:08.316Z,99848.00
2019-06-07T01:18:11.955Z,99849.00
2019-06-07T01:20:16.696Z,99831.00
2019-06-07T01:22:51.125Z,99834.00
2019-06-07T01:25:26.416Z,99826.00
2019-06-07T01:27:59.289Z,99826.00
2019-06-07T01:30:33.782Z,99822.00
2019-06-07T01:33:07.328Z,99826.00
2019-06-07T01:35:40.783Z,99826.00
2019-06-07T01:38:17.048Z,99855.00
2019-06-07T01:40:49.169Z,99882.00
2019-06-07T01:43:26.147Z,99880.00
2019-06-07T01:46:01.340Z,99884.00
2019-06-07T01:48:49.579Z,99878.00
2019-06-07T01:51:15.025Z,99880.00
2019-06-07T01:54:41.281Z,99902.00
2019-06-07T01:56:29.250Z,99926.00
2019-06-07T01:59:00.910Z,99941.00
2019-06-07T02:01:35.562Z,99940.00
2019-06-07T02:04:08.691Z,99950.00
2019-06-07T02:06:41.953Z,99953.00
2019-06-07T02:09:15.499Z,99958.00
2019-06-07T02:11:48.443Z,99951.00
2019-06-07T02:14:24.128Z,99961.00
2019-06-07T02:16:56.082Z,99958.00
2019-06-07T02:19:32.725Z,99916.00
2019-06-07T02:22:03.486Z,99921.00
2019-06-07T02:24:37.087Z,99918.00
2019-06-07T02:27:10.644Z,99916.00
2019-06-07T02:29:44.514Z,99920.00
2019-06-07T02:32:17.457Z,99924.00
2019-06-07T02:34:50.461Z,99916.00
2019-06-07T02:37:26.308Z,99910.00
2019-06-07T02:39:57.834Z,99914.00
2019-06-07T02:42:39.016Z,99911.00
2019-06-07T02:45:05.321Z,99916.00
2019-06-07T02:47:38.507Z,99912.00
2019-06-07T02:50:15.781Z,99924.00
2019-06-07T02:52:49.060Z,99934.00
2019-06-07T02:55:24.881Z,99930.00
2019-06-07T02:57:57.079Z,99923.00
2019-06-07T03:01:06.836Z,99928.00
2019-06-07T03:03:24.533Z,99925.00
2019-06-07T03:05:58.086Z,99929.00
2019-06-07T03:08:35.415Z,99941.00
2019-06-07T03:11:06.571Z,99950.00
2019-06-07T03:13:41.187Z,99954.00
2019-06-07T03:16:15.995Z,99968.00
2019-06-07T03:18:54.181Z,99977.00
2019-06-07T03:21:33.621Z,99982.00
2019-06-07T03:24:06.540Z,99989.00
2019-06-07T03:27:30.373Z,100000.00
2019-06-07T03:29:14.533Z,100004.00
2019-06-07T03:31:48.501Z,99996.00
2019-06-07T03:34:21.231Z,100005.00
2019-06-07T03:36:54.511Z,100009.00
2019-06-07T03:39:28.434Z,100018.00
2019-06-07T03:42:06.221Z,100015.00
2019-06-07T03:44:38.364Z,100021.00
2019-06-07T03:47:10.057Z,100027.00
2019-06-07T03:49:43.533Z,100038.00
2019-06-07T03:52:20.109Z,100062.00
2019-06-07T03:54:53.020Z,100075.00
2019-06-07T03:57:28.624Z,100078.00
2019-06-07T04:00:02.919Z,100085.00
2019-06-07T04:02:42.499Z,100087.00
2019-06-07T04:05:18.681Z,100106.00
2019-06-07T04:07:56.566Z,100100.00
2019-06-07T04:10:52.057Z,100124.00
2019-06-07T04:13:21.033Z,100130.00
2019-06-07T04:15:56.273Z,100122.00
2019-06-07T04:18:36.454Z,100128.00
2019-06-07T04:21:20.960Z,100125.00
2019-06-07T04:23:54.650Z,100136.00
2019-06-07T04:26:31.368Z,100139.00
2019-06-07T04:31:39.881Z,100156.00
2019-06-07T04:34:12.483Z,100167.00
2019-06-07T04:36:58.360Z,100167.00
2019-06-07T04:39:22.673Z,100178.00
2019-06-07T04:41:57.716Z,100185.00
2019-06-07T04:44:31.187Z,100189.00
2019-06-07T04:47:10.760Z,100187.00
2019-06-07T04:49:45.921Z,100188.00
2019-06-07T04:52:19.041Z,100207.00
2019-06-07T04:54:53.032Z,100217.00
2019-06-07T04:57:26.141Z,100219.00
2019-06-07T05:00:12.804Z,100231.00
2019-06-07T05:02:36.781Z,100230.00
2019-06-07T05:05:09.442Z,100233.00
2019-06-07T05:07:45.956Z,100242.00
2019-06-07T05:10:17.410Z,100259.00
2019-06-07T05:12:50.609Z,100267.00
2019-06-07T05:15:24.396Z,100280.00
2019-06-07T05:17:57.543Z,100279.00
2019-06-07T05:20:33.568Z,100273.00
2019-06-07T05:23:04.799Z,100278.00
2019-06-07T05:25:44.518Z,100281.00
2019-06-07T05:28:14.528Z,100283.00
2019-06-07T05:33:21.962Z,100310.00
2019-06-07T05:35:55.104Z,100303.00
2019-06-07T05:38:28.097Z,100313.00
2019-06-07T05:41:01.403Z,100313.00
2019-06-07T05:43:36.553Z,100311.00
2019-06-07T05:46:08.506Z,100319.00
2019-06-07T05:48:42.446Z,100340.00
2019-06-07T05:51:16.196Z,100350.00
2019-06-07T05:53:49.372Z,100353.00
2019-06-07T05:56:22.488Z,100351.00
2019-06-07T05:58:55.558Z,100360.00
2019-06-07T06:01:53.440Z,100370.00
2019-06-07T06:04:04.162Z,100370.00
2019-06-07T06:06:38.818Z,100372.00
2019-06-07T06:09:14.357Z,100374.00
2019-06-07T06:11:59.535Z,100389.00
2019-06-07T06:14:20.456Z,100389.00
2019-06-07T06:19:52.401Z,100411.00
2019-06-07T06:22:21.360Z,100400.00
2019-06-07T06:25:30.118Z,100386.00
2019-06-07T06:28:03.280Z,100394.00
2019-06-07T06:30:03.705Z,100395.00
2019-06-07T06:32:42.898Z,100399.00
2019-06-07T06:35:12.211Z,100393.00
2019-06-07T06:37:50.028Z,100391.00
2019-06-07T06:40:19.673Z,100397.00
2019-06-07T06:42:53.007Z,100396.00
2019-06-07T06:45:26.597Z,100408.00
2019-06-07T06:47:59.619Z,100398.00
2019-06-07T06:50:32.722Z,100402.00
2019-06-07T06:53:05.698Z,100400.00
2019-06-07T06:55:39.076Z,100402.00
2019-06-07T06:58:12.443Z,100416.00
2019-06-07T07:01:04.454Z,100411.00
2019-06-07T07:03:56.612Z,100417.00
2019-06-07T07:06:24.564Z,100414.00
2019-06-07T07:08:34.914Z,100420.00
2019-06-07T07:11:07.922Z,100425.00
2019-06-07T07:13:41.651Z,100436.00
2019-06-07T07:16:14.985Z,100438.00
2019-06-07T07:18:51.104Z,100441.00
2019-06-07T07:21:22.064Z,100447.00
2019-06-07T07:24:19.672Z,100454.00
2019-06-07T07:26:29.656Z,100459.00
2019-06-07T07:29:02.678Z,100464.00
2019-06-07T07:31:36.578Z,100474.00
2019-06-07T07:34:34.933Z,100467.00
2019-06-07T07:36:44.850Z,100472.00
2019-06-07T07:39:18.287Z,100474.00
2019-06-07T07:42:13.790Z,100476.00
2019-06-07T07:44:25.470Z,100487.00
2019-06-07T07:46:58.647Z,100489.00
2019-06-07T07:49:31.985Z,100491.00
2019-06-07T07:52:04.984Z,100491.00
2019-06-07T07:54:37.948Z,100486.00
2019-06-07T07:57:10.966Z,100494.00
2019-06-07T08:00:00.424Z,100490.00
2019-06-07T08:02:18.214Z,100496.00
2019-06-07T08:05:20.566Z,100492.00
2019-06-07T08:07:25.437Z,100506.00
2019-06-07T08:10:03.409Z,100499.00
2019-06-07T08:12:55.494Z,100507.00
2019-06-07T08:15:08.556Z,100507.00
2019-06-07T08:17:41.465Z,100510.00
2019-06-07T08:20:14.663Z,100505.00
2019-06-07T08:22:47.767Z,100519.00
2019-06-07T08:25:20.790Z,100520.00
2019-06-07T08:27:56.821Z,100519.00
2019-06-07T08:33:24.589Z,100525.00
2019-06-07T08:36:06.228Z,100518.00
2019-06-07T08:38:38.757Z,100528.00
2019-06-07T08:40:45.461Z,100530.00
2019-06-07T08:43:21.045Z,100535.00
2019-06-07T08:45:58.443Z,100529.00
2019-06-07T08:48:30.131Z,100516.00
2019-06-07T08:51:07.450Z,100522.00
2019-06-07T08:53:36.192Z,100529.00
2019-06-07T08:56:11.049Z,100532.00
2019-06-07T08:58:43.631Z,100537.00
2019-06-07T09:01:16.565Z,100534.00
2019-06-07T09:03:49.846Z,100527.00
2019-06-07T09:09:00.307Z,100536.00
2019-06-07T09:11:31.628Z,100530.00
2019-06-07T09:14:09.204Z,100538.00
2019-06-07T09:16:41.451Z,100532.00
2019-06-07T09:19:14.697Z,100545.00
2019-06-07T09:21:48.079Z,100538.00
2019-06-07T09:24:21.074Z,100539.00
2019-06-07T09:26:55.837Z,100536.00
2019-06-07T09:29:28.780Z,100534.00
2019-06-07T09:32:05.805Z,100530.00
2019-06-07T09:34:38.403Z,100531.00
2019-06-07T09:38:03.090Z,100536.00
2019-06-07T09:39:46.178Z,100542.00
2019-06-07T09:42:19.317Z,100549.00
2019-06-07T09:44:52.405Z,100549.00
2019-06-07T09:47:32.460Z,100554.00
2019-06-07T09:50:04.120Z,100574.00
2019-06-07T09:52:56.488Z,100581.00
2019-06-07T09:55:22.950Z,100578.00
2019-06-07T09:57:42.742Z,100574.00
2019-06-07T10:00:40.066Z,100565.00
2019-06-07T10:02:54.095Z,100561.00
2019-06-07T10:05:27.069Z,100552.00
2019-06-07T10:08:14.470Z,100549.00
2019-06-07T10:13:10.193Z,100553.00
2019-06-07T10:15:43.257Z,100545.00
2019-06-07T10:18:19.334Z,100551.00
2019-06-07T10:20:53.364Z,100554.00
2019-06-07T10:23:26.729Z,100532.00
2019-06-07T10:26:01.479Z,100538.00
2019-06-07T10:28:34.419Z,100545.00
2019-06-07T10:31:09.900Z,100536.00
2019-06-07T10:33:43.143Z,100538.00
2019-06-07T10:36:15.914Z,100545.00
2019-06-07T10:38:49.801Z,100540.00
2019-06-07T10:41:22.922Z,100552.00
2019-06-07T10:43:56.109Z,100551.00
2019-06-07T10:46:29.249Z,100546.00
2019-06-07T10:49:03.683Z,100553.00
2019-06-07T10:51:36.783Z,100554.00
2019-06-07T10:54:23.537Z,100568.00
2019-06-07T10:56:44.450Z,100554.00
2019-06-07T10:59:17.563Z,100542.00
2019-06-07T11:01:50.715Z,100552.00
2019-06-07T11:04:23.824Z,100547.00
2019-06-07T11:06:56.742Z,100535.00
2019-06-07T11:09:29.765Z,100532.00
2019-06-07T11:12:04.233Z,100529.00
2019-06-07T11:14:38.595Z,100527.00
2019-06-07T11:17:11.551Z,100534.00
2019-06-07T11:19:45.638Z,100528.00
2019-06-07T11:22:18.990Z,100529.00
2019-06-07T11:24:52.292Z,100535.00
2019-06-07T11:27:25.597Z,100534.00
2019-06-07T11:29:58.603Z,100530.00
2019-06-07T11:32:32.406Z,100541.00
2019-06-07T11:35:06.317Z,100536.00
2019-06-07T11:37:39.333Z,100540.00
2019-06-07T11:40:35.609Z,100543.00
2019-06-07T11:42:47.677Z,100539.00
2019-06-07T11:45:20.893Z,100545.00
2019-06-07T11:47:54.041Z,100548.00
2019-06-07T11:50:27.157Z,100548.00
2019-06-07T11:53:00.174Z,100558.00
2019-06-07T11:55:33.181Z,100551.00
2019-06-07T11:58:09.071Z,100563.00
2019-06-07T12:00:40.582Z,100564.00
2019-06-07T12:03:13.861Z,100571.00
2019-06-07T12:05:47.137Z,100574.00
2019-06-07T12:08:20.237Z,100568.00
2019-06-07T12:10:53.316Z,100580.00
2019-06-07T12:13:27.036Z,100569.00
2019-06-07T12:16:00.180Z,100567.00
2019-06-07T12:18:33.415Z,100558.00
2019-06-07T12:21:06.549Z,100564.00
2019-06-07T12:23:39.734Z,100567.00
2019-06-07T12:26:12.746Z,100561.00
2019-06-07T12:28:45.951Z,100573.00
2019-06-07T12:31:19.220Z,100559.00
2019-06-07T12:33:52.960Z,100558.00
2019-06-07T12:36:25.926Z,100557.00
2019-06-07T12:38:59.056Z,100551.00
2019-06-07T12:41:32.506Z,100564.00
2019-06-07T12:44:05.678Z,100553.00
2019-06-07T12:46:38.596Z,100556.00
2019-06-07T12:49:12.889Z,100570.00
2019-06-07T12:51:46.269Z,100571.00
2019-06-07T12:54:19.666Z,100578.00
2019-06-07T12:56:52.619Z,100578.00
2019-06-07T12:59:25.635Z,100574.00
2019-06-07T13:02:02.309Z,100570.00
2019-06-07T13:04:32.929Z,100563.00
2019-06-07T13:07:06.058Z,100575.00
2019-06-07T13:09:38.999Z,100569.00
2019-06-07T13:12:12.105Z,100555.00
2019-06-07T13:14:45.250Z,100548.00
2019-06-07T13:17:18.506Z,100548.00
2019-06-07T13:19:51.615Z,100534.00
2019-06-07T13:22:24.602Z,100539.00
2019-06-07T13:24:59.427Z,100553.00
2019-06-07T13:27:33.648Z,100553.00
2019-06-07T13:30:10.040Z,100566.00
2019-06-07T13:32:40.026Z,100554.00
2019-06-07T13:35:14.846Z,100564.00
2019-06-07T13:37:48.438Z,100568.00
2019-06-07T13:40:22.986Z,100581.00
2019-06-07T13:42:56.371Z,100578.00
2019-06-07T13:45:29.669Z,100574.00
2019-06-07T13:48:02.774Z,100560.00
2019-06-07T13:50:36.378Z,100558.00
2019-06-07T13:53:10.057Z,100555.00
2019-06-07T13:55:43.067Z,100560.00
2019-06-07T13:58:16.124Z,100566.00
2019-06-07T14:00:49.124Z,100567.00
2019-06-07T14:03:26.564Z,100572.00
2019-06-07T14:05:56.352Z,100588.00
2019-06-07T14:08:29.767Z,100572.00
2019-06-07T14:11:02.681Z,100567.00
2019-06-07T14:13:35.716Z,100559.00
2019-06-07T14:16:08.941Z,100563.00
2019-06-07T14:18:41.976Z,100557.00
2019-06-07T14:21:14.983Z,100543.00
2019-06-07T14:23:49.323Z,100539.00
2019-06-07T14:26:23.148Z,100527.00
2019-06-07T14:28:56.567Z,100532.00
2019-06-07T14:31:30.279Z,100539.00
2019-06-07T14:34:03.535Z,100548.00
2019-06-07T14:36:36.652Z,100552.00
2019-06-07T14:39:11.582Z,100548.00
2019-06-07T14:41:44.516Z,100536.00
2019-06-07T14:44:17.703Z,100547.00
2019-06-07T14:46:50.996Z,100534.00
2019-06-07T14:49:24.240Z,100534.00
2019-06-07T14:51:57.497Z,100536.00
2019-06-07T14:54:32.294Z,100530.00
2019-06-07T14:57:04.683Z,100526.00
2019-06-07T14:59:38.794Z,100509.00
2019-06-07T15:02:11.842Z,100503.00
2019-06-07T15:04:46.290Z,100514.00
2019-06-07T15:07:19.472Z,100513.00
2019-06-07T15:09:52.526Z,100507.00
2019-06-07T15:12:27.175Z,100513.00
2019-06-07T15:14:59.958Z,100502.00
2019-06-07T15:17:33.409Z,100521.00
2019-06-07T15:20:08.652Z,100523.00
2019-06-07T15:22:42.174Z,100524.00
2019-06-07T15:25:15.086Z,100529.00
2019-06-07T15:27:48.149Z,100529.00
2019-06-07T15:30:22.694Z,100534.00
2019-06-07T15:32:59.422Z,100521.00
2019-06-07T15:35:30.542Z,100510.00
2019-06-07T15:38:04.033Z,100517.00
2019-06-07T15:40:37.509Z,100525.00
2019-06-07T15:43:10.661Z,100522.00
2019-06-07T15:45:43.986Z,100523.00
2019-06-07T15:48:18.003Z,100518.00
2019-06-07T15:50:51.013Z,100506.00
2019-06-07T15:53:24.072Z,100505.00
2019-06-07T15:55:57.082Z,100518.00
2019-06-07T15:58:30.861Z,100529.00
2019-06-07T16:01:03.963Z,100530.00
2019-06-07T16:03:37.969Z,100537.00
2019-06-07T16:06:11.159Z,100529.00
2019-06-07T16:08:44.032Z,100525.00
2019-06-07T16:11:17.161Z,100507.00
2019-06-07T16:13:50.195Z,100494.00
2019-06-07T16:16:23.231Z,100487.00
2019-06-07T16:18:56.180Z,100494.00
2019-06-07T16:21:29.412Z,100481.00
2019-06-07T16:24:02.415Z,100497.00
2019-06-07T16:26:38.484Z,100491.00
2019-06-07T16:29:11.415Z,100475.00
2019-06-07T16:31:45.118Z,100475.00
2019-06-07T16:34:18.412Z,100469.00
2019-06-07T16:36:52.153Z,100465.00
2019-06-07T16:39:26.116Z,100448.00
2019-06-07T16:41:59.242Z,100460.00
2019-06-07T16:44:32.200Z,100463.00
2019-06-07T16:47:05.206Z,100459.00
2019-06-07T16:49:38.661Z,100462.00
2019-06-07T16:52:12.736Z,100442.00
2019-06-07T16:54:45.917Z,100443.00
2019-06-07T16:57:19.213Z,100463.00
2019-06-07T16:59:52.212Z,100464.00
2019-06-07T17:02:25.931Z,100462.00
2019-06-07T17:04:59.088Z,100457.00
2019-06-07T17:07:32.160Z,100444.00
2019-06-07T17:10:05.117Z,100443.00
2019-06-07T17:12:38.554Z,100424.00
2019-06-07T17:15:13.080Z,100437.00
2019-06-07T17:17:46.990Z,100419.00
2019-06-07T17:20:20.359Z,100432.00
2019-06-07T17:22:53.356Z,100418.00
2019-06-07T17:25:26.386Z,100419.00
2019-06-07T17:27:59.424Z,100420.00
2019-06-07T17:30:32.384Z,100415.00
2019-06-07T17:33:06.376Z,100426.00
2019-06-07T17:35:40.135Z,100425.00
2019-06-07T17:38:13.213Z,100426.00
2019-06-07T17:40:47.126Z,100419.00
2019-06-07T17:43:20.236Z,100427.00
2019-06-07T17:45:53.101Z,100422.00
2019-06-07T17:48:26.122Z,100409.00
2019-06-07T17:50:59.090Z,100421.00
2019-06-07T17:53:32.806Z,100413.00
2019-06-07T17:56:05.736Z,100414.00
2019-06-07T17:58:38.716Z,100400.00
2019-06-07T18:01:11.678Z,100393.00
2019-06-07T18:03:45.140Z,100385.00
2019-06-07T18:06:18.454Z,100384.00
2019-06-07T18:08:51.866Z,100400.00
2019-06-07T18:11:25.117Z,100399.00
2019-06-07T18:14:10.108Z,100396.00
2019-06-07T18:16:32.243Z,100402.00
2019-06-07T18:19:05.299Z,100395.00
2019-06-07T18:21:38.484Z,100403.00
2019-06-07T18:24:11.540Z,100395.00
2019-06-07T18:26:46.449Z,100406.00
2019-06-07T18:29:19.474Z,100384.00
2019-06-07T18:31:52.864Z,100392.00
2019-06-07T18:34:26.157Z,100384.00
2019-06-07T18:36:59.427Z,100382.00
2019-06-07T18:39:32.690Z,100375.00
2019-06-07T18:42:06.336Z,100413.00
2019-06-07T18:44:39.230Z,100417.00
2019-06-07T18:47:12.571Z,100432.00
2019-06-07T18:49:47.398Z,100416.00
2019-06-07T18:52:21.235Z,100420.00
2019-06-07T18:54:55.081Z,100427.00
2019-06-07T18:57:28.125Z,100418.00
2019-06-07T19:00:01.533Z,100409.00
2019-06-07T19:02:34.655Z,100426.00
2019-06-07T19:05:09.255Z,100448.00
2019-06-07T19:07:42.766Z,100447.00
2019-06-07T19:10:17.010Z,100453.00
2019-06-07T19:12:50.931Z,100432.00
2019-06-07T19:15:24.187Z,100447.00
2019-06-07T19:17:58.133Z,100441.00
2019-06-07T19:20:31.506Z,100438.00
2019-06-07T19:23:04.639Z,100448.00
2019-06-07T19:25:37.663Z,100440.00
2019-06-07T19:28:10.769Z,100445.00
2019-06-07T19:30:44.267Z,100444.00
2019-06-07T19:33:17.598Z,100451.00
2019-06-07T19:35:51.398Z,100439.00
2019-06-07T19:38:24.282Z,100453.00
2019-06-07T19:40:57.985Z,100470.00
2019-06-07T19:43:31.447Z,100480.00
2019-06-07T19:46:04.422Z,100482.00
2019-06-07T19:48:37.390Z,100491.00
2019-06-07T19:51:10.394Z,100500.00
2019-06-07T19:53:43.454Z,100495.00
2019-06-07T19:56:16.384Z,100479.00
2019-06-07T19:58:49.528Z,100490.00
2019-06-07T20:01:22.559Z,100468.00
2019-06-07T20:03:55.922Z,100468.00
2019-06-07T20:06:29.167Z,100450.00
2019-06-07T20:09:03.259Z,100456.00
2019-06-07T20:11:36.357Z,100478.00
2019-06-07T20:14:09.309Z,100473.00
2019-06-07T20:16:42.339Z,100476.00
2019-06-07T20:19:15.145Z,100476.00
2019-06-07T20:21:48.190Z,100465.00
2019-06-07T20:24:27.044Z,100476.00
2019-06-07T20:26:56.128Z,100475.00
2019-06-07T20:29:30.212Z,100463.00
2019-06-07T20:32:04.478Z,100460.00
2019-06-07T20:34:37.706Z,100474.00
2019-06-07T20:37:10.894Z,100465.00
2019-06-07T20:39:44.312Z,100458.00
2019-06-07T20:42:17.228Z,100461.00
2019-06-07T20:44:50.853Z,100458.00
2019-06-07T20:47:24.403Z,100476.00
2019-06-07T20:49:57.916Z,100473.00
2019-06-07T20:52:30.927Z,100477.00
2019-06-07T20:55:04.905Z,100457.00
2019-06-07T20:57:38.254Z,100475.00
2019-06-07T21:00:21.101Z,100470.00
2019-06-07T21:02:47.053Z,100468.00
2019-06-07T21:05:20.334Z,100459.00
2019-06-07T21:07:53.433Z,100474.00
2019-06-07T21:10:26.258Z,100482.00
2019-06-07T21:12:59.708Z,100472.00
2019-06-07T21:15:47.636Z,100464.00
2019-06-07T21:18:16.230Z,100471.00
2019-06-07T21:20:41.053Z,100466.00
2019-06-07T21:23:14.116Z,100466.00
2019-06-07T21:25:47.045Z,100468.00
2019-06-07T21:28:23.278Z,100469.00
2019-06-07T21:30:56.475Z,100470.00
2019-06-07T21:33:29.837Z,100479.00
2019-06-07T21:36:04.429Z,100478.00
2019-06-07T21:38:37.673Z,100478.00
2019-06-07T21:41:10.627Z,100480.00
2019-06-07T21:43:44.004Z,100465.00
2019-06-07T21:46:20.607Z,100476.00
2019-06-07T21:48:52.369Z,100476.00
2019-06-07T21:51:25.335Z,100483.00
2019-06-07T21:53:58.327Z,100464.00
2019-06-07T21:56:31.271Z,100469.00
2019-06-07T21:59:05.060Z,100453.00
2019-06-07T22:01:39.254Z,100459.00
2019-06-07T22:04:13.586Z,100446.00
2019-06-07T22:06:46.730Z,100449.00
2019-06-07T22:09:20.133Z,100448.00
2019-06-07T22:11:53.076Z,100443.00
2019-06-07T22:14:26.221Z,100438.00
2019-06-07T22:16:59.325Z,100443.00
2019-06-07T22:19:32.809Z,100452.00
2019-06-07T22:22:07.501Z,100459.00
2019-06-07T22:24:40.652Z,100455.00
2019-06-07T22:27:14.066Z,100438.00
2019-06-07T22:29:48.857Z,100440.00
2019-06-07T22:32:22.107Z,100418.00
2019-06-07T22:34:55.665Z,100430.00
2019-06-07T22:37:29.243Z,100424.00
2019-06-07T22:40:02.357Z,100432.00
2019-06-07T22:42:36.886Z,100432.00
2019-06-07T22:45:10.917Z,100412.00
2019-06-07T22:47:44.595Z,100425.00
2019-06-07T22:50:18.525Z,100405.00
2019-06-07T22:52:51.515Z,100406.00
2019-06-07T22:55:25.649Z,100398.00
2019-06-07T22:58:01.940Z,100371.00
2019-06-07T23:00:36.562Z,100364.00
2019-06-07T23:03:10.637Z,100350.00
2019-06-07T23:05:46.687Z,100376.00
2019-06-07T23:08:19.550Z,100366.00
2019-06-07T23:10:52.784Z,100379.00
2019-06-07T23:13:28.610Z,100361.00
2019-06-07T23:16:01.767Z,100358.00
2019-06-07T23:18:34.859Z,100387.00
2019-06-07T23:21:07.968Z,100391.00
2019-06-07T23:23:41.120Z,100416.00
2019-06-07T23:26:16.230Z,100391.00
2019-06-07T23:28:49.306Z,100395.00
2019-06-07T23:31:23.897Z,100363.00
2019-06-07T23:33:57.345Z,100383.00
2019-06-07T23:36:30.342Z,100372.00
2019-06-07T23:39:03.452Z,100381.00
2019-06-07T23:41:36.519Z,100371.00
2019-06-07T23:44:11.036Z,100381.00
2019-06-07T23:46:44.141Z,100394.00
2019-06-07T23:49:19.750Z,100364.00
2019-06-07T23:51:52.848Z,100377.00
2019-06-07T23:54:25.937Z,100377.00
2019-06-07T23:57:00.045Z,100349.00
2019-06-07T23:59:33.168Z,100357.00
